Dogwood, Texas
Current Conditions -  °F | °C
As of 2:15 AM on Tuesday 21 Oct 2014 (Local Time) from KJAS Reporting Station
Clear Clear  
Wind Chill: 52°   Ceiling: Unl
Heat Index: 52°   Visibility: 7mi
Dew Point: 51°   Wind: 0mph
Humidity: 97%   Direction: NA
Pressure: 30.05"   Gusts: NA
Location:  30.7643°N, 94.4448°W
Report Text: KJAS 210715Z AUTO 00000KT 7SM CLR 11/11 A3005 RMK AO2 T01120107
Loading
Personal Weather Stations






























Interactive Weather Map
Tropical Storm Tracking
New forecast layout! Learn more

10-Day Weather Forecast

Advertisements
Track Severe Weather on mobile